Details From NFFN - Nadi Intl
To NSTU - Pago Pago Intl
Flight Number -
Tags Generated
Created
Modified
Stats Distance 714 nm / 1,323 km
Max Altitude 0 ft / 0 m
Waypoints 3
Social Downloads 5
Likes 0
Share VATSIM

Download

Looking for another format? Having issues loading an existing format? Contact us
Advertisement - Login to hide

Notes

Generated

Route

NFFN SETTS NSTU

ID Type Via Altitude Latitude Longitude Leg Dist Tot Dist Heading (true) Name
O NFFN APT - 0 ft / 0 m -17.75352˚ 177.43591˚ - 0 nm - -
SETTS FIX - 0 ft / 0 m -14.43581˚ -171.03497˚ 694 nm 694 nm 75° / 72° -
O NSTU APT - 0 ft / 0 m -14.32694˚ -170.71321˚ 19 nm 714 nm 71° / 71° Pago Pago

Altitude Profile

Advertisement - Login to hide

Weather


0- 5 10 15 20 25 30 35+ Temperature / ° C

Clouds and Precipitation
Forecast for 2017-12-11 00:00 UTC. Updated 2 hours ago

Ground ~20,000 ft ~40,000 ft Winds

NFFN

Details ICAO NFFN (NAN)
Name Nadi Intl
Region Fiji and Tonga
Timezone Pacific/Fiji (UTC+13.0)
Stats Elevation 59 ft / 18 m (AMSL)
Location -17.758366° 177.442147°
Runways 2
Magnetic Variation 12.399° E

METAR

NFFN 110000Z 25012KT 9999 FEW027TCU BKN110 30/22 Q1007 TEMPO 7000 TSRA FEW018CB

Decode

TAF

TAF NFFN 102301Z 1100/1124 26010KT 9999 FEW028 SCT050 PROB30 TEMPO 1100/1106 5000 TSRA FEW018CB BECMG 1104/1106 10007KT BECMG 1121/1123 27010KT

Decode

Departure Runways

ID Width Length Bearing (true) Bearing (mag) Surface Threshold Offset Overrun Length
02 151 ft / 46 m 10,529 ft / 3,209 m 37.50° 25.10° Asphalt 0 ft / 0 m 0 ft / 0 m
09 151 ft / 46 m 6,989 ft / 2,130 m 104.20° 91.80° Asphalt 0 ft / 0 m 95 ft / 29 m
20 151 ft / 46 m 10,529 ft / 3,209 m 217.50° 205.10° Asphalt 0 ft / 0 m 0 ft / 0 m
27 151 ft / 46 m 6,989 ft / 2,130 m 284.20° 271.80° Asphalt 0 ft / 0 m 0 ft / 0 m

NSTU

Details ICAO NSTU (PPG)
Name Pago Pago
Region American Samoa
Timezone Unknown (UTC+0.0)
Stats Elevation 0 ft / 0 m (AMSL)
Location -14.330060° -170.710244°
Runways 2
Magnetic Variation 11.772° E

METAR

NSTU 102350Z VRB06KT 12SM FEW021 FEW045 SCT110 31/26 A2969 RMK SLP056 60168 8/870 T03100258 10310 20245 57017

Decode

TAF

TAF NSTU 102341Z 1100/1124 31006KT P6SM FEW020 SCT040 BKN100

Decode

Destination Runways

ID Width Length Bearing (true) Bearing (mag) Surface Threshold Offset Overrun Length
05 151 ft / 46 m 10,007 ft / 3,050 m 60.00° 48.23° Asphalt 1,001 ft / 305 m 413 ft / 126 m
08 98 ft / 30 m 3,907 ft / 1,191 m 89.93° 78.16° Asphalt 0 ft / 0 m 371 ft / 113 m
23 151 ft / 46 m 10,007 ft / 3,050 m 240.00° 228.23° Asphalt 784 ft / 239 m 226 ft / 69 m
26 98 ft / 30 m 3,907 ft / 1,191 m 269.93° 258.16° Asphalt 112 ft / 34 m 0 ft / 0 m

Approach Navaids

Runway Type Ident Frequency Range Bearing (true) Bearing (mag) Slope Elevation
05 Localiser ITUT 110.30 MHz 18 nm / 33 km 58.08° 46.30° - 9 ft / 3 m (AMSL)
05 Glidescope ITUT 110.30 MHz 10 nm / 19 km 60.00° 48.23° 3.25° 28 ft / 9 m (AMSL)
05 DME ITUT 110.30 MHz 18 nm / 33 km - - - 9 ft / 3 m (AMSL)

Popular Alternatives